Terminal Aerodrome Forecast
Issued by NWS Duluth, MN

Home | Current Version | Previous Version | Text Only | Print | Product List | Glossary On
Versions: 1 2 3 4 5 6 7 8 9 10 11 12 13 14 15 16 17 18 19 20 21 22 23 24 25 26 27 28 29 30 31 32 33 34 35
656
FTUS43 KDLH 010232 AAC
TAFDLH
TAF AMD
KDLH 010232Z 0103/0124 09010KT 1 1/2SM BR OVC003
      TEMPO 0102/0106 1/4SM FG VV002
     FM010600 08007KT 1 1/2SM BR OVC003
      TEMPO 0109/0113 3/4SM BR OVC003
     FM011500 09009KT P6SM BKN006 BKN050
     FM011700 09008KT P6SM SCT008 BKN200=

USA.gov is the U.S. government's official web portal to all federal, state and local government web resources and services.